sensor_id;sensor_type;location;lat;lon;timestamp;P1;durP1;ratioP1;P2;durP2;ratioP2
65572;SDS011;52214;50.940;13.996;2022-12-24T00:02:00;3.55;;;1.20;;
65572;SDS011;52214;50.940;13.996;2022-12-24T00:04:26;3.30;;;1.08;;
65572;SDS011;52214;50.940;13.996;2022-12-24T00:06:52;3.77;;;1.20;;
65572;SDS011;52214;50.940;13.996;2022-12-24T00:09:17;3.93;;;1.03;;
65572;SDS011;52214;50.940;13.996;2022-12-24T00:11:42;3.20;;;1.10;;
65572;SDS011;52214;50.940;13.996;2022-12-24T00:14:08;7.68;;;1.52;;
65572;SDS011;52214;50.940;13.996;2022-12-24T00:16:34;5.20;;;1.27;;
65572;SDS011;52214;50.940;13.996;2022-12-24T00:18:59;3.77;;;1.10;;
65572;SDS011;52214;50.940;13.996;2022-12-24T00:21:25;3.05;;;1.00;;
65572;SDS011;52214;50.940;13.996;2022-12-24T00:23:50;2.83;;;0.93;;
65572;SDS011;52214;50.940;13.996;2022-12-24T00:26:16;2.63;;;1.13;;
65572;SDS011;52214;50.940;13.996;2022-12-24T00:28:41;2.67;;;0.90;;
65572;SDS011;52214;50.940;13.996;2022-12-24T00:31:16;2.83;;;0.88;;
65572;SDS011;52214;50.940;13.996;2022-12-24T00:33:44;2.00;;;0.63;;
65572;SDS011;52214;50.940;13.996;2022-12-24T00:36:11;2.10;;;0.60;;
65572;SDS011;52214;50.940;13.996;2022-12-24T00:38:37;3.10;;;1.00;;
65572;SDS011;52214;50.940;13.996;2022-12-24T00:41:04;4.43;;;0.85;;
65572;SDS011;52214;50.940;13.996;2022-12-24T00:43:52;2.63;;;0.98;;
65572;SDS011;52214;50.940;13.996;2022-12-24T00:46:22;2.93;;;0.90;;
65572;SDS011;52214;50.940;13.996;2022-12-24T00:48:49;2.53;;;0.75;;
65572;SDS011;52214;50.940;13.996;2022-12-24T00:51:15;2.13;;;0.80;;
65572;SDS011;52214;50.940;13.996;2022-12-24T00:53:41;3.23;;;1.13;;
65572;SDS011;52214;50.940;13.996;2022-12-24T00:56:06;6.28;;;1.00;;
65572;SDS011;52214;50.940;13.996;2022-12-24T00:58:33;3.63;;;0.85;;
65572;SDS011;52214;50.940;13.996;2022-12-24T01:00:58;2.55;;;0.80;;
65572;SDS011;52214;50.940;13.996;2022-12-24T01:03:24;4.93;;;1.10;;
65572;SDS011;52214;50.940;13.996;2022-12-24T01:06:03;3.63;;;1.10;;
65572;SDS011;52214;50.940;13.996;2022-12-24T01:08:41;3.60;;;0.60;;
65572;SDS011;52214;50.940;13.996;2022-12-24T01:11:07;2.90;;;1.10;;
65572;SDS011;52214;50.940;13.996;2022-12-24T01:13:34;2.60;;;0.80;;
65572;SDS011;52214;50.940;13.996;2022-12-24T01:16:00;6.32;;;0.90;;
65572;SDS011;52214;50.940;13.996;2022-12-24T01:18:26;2.22;;;0.70;;
65572;SDS011;52214;50.940;13.996;2022-12-24T01:20:59;8.18;;;1.20;;
65572;SDS011;52214;50.940;13.996;2022-12-24T01:23:28;4.93;;;1.00;;
65572;SDS011;52214;50.940;13.996;2022-12-24T01:25:54;3.72;;;1.08;;
65572;SDS011;52214;50.940;13.996;2022-12-24T01:28:23;6.63;;;1.30;;
65572;SDS011;52214;50.940;13.996;2022-12-24T01:30:49;3.30;;;0.83;;
65572;SDS011;52214;50.940;13.996;2022-12-24T01:33:14;5.47;;;1.13;;
65572;SDS011;52214;50.940;13.996;2022-12-24T01:35:40;4.00;;;1.05;;
65572;SDS011;52214;50.940;13.996;2022-12-24T01:38:06;5.90;;;0.88;;
65572;SDS011;52214;50.940;13.996;2022-12-24T01:40:32;4.17;;;1.30;;
65572;SDS011;52214;50.940;13.996;2022-12-24T01:43:17;6.45;;;1.00;;
65572;SDS011;52214;50.940;13.996;2022-12-24T01:45:53;2.78;;;0.80;;
65572;SDS011;52214;50.940;13.996;2022-12-24T01:51:21;6.57;;;1.20;;
65572;SDS011;52214;50.940;13.996;2022-12-24T01:53:57;3.40;;;0.90;;
65572;SDS011;52214;50.940;13.996;2022-12-24T01:56:27;2.70;;;0.80;;
65572;SDS011;52214;50.940;13.996;2022-12-24T01:58:56;4.10;;;0.85;;
65572;SDS011;52214;50.940;13.996;2022-12-24T02:01:26;4.90;;;1.02;;
65572;SDS011;52214;50.940;13.996;2022-12-24T02:03:51;6.83;;;1.20;;
65572;SDS011;52214;50.940;13.996;2022-12-24T02:06:17;5.67;;;1.30;;
65572;SDS011;52214;50.940;13.996;2022-12-24T02:08:46;3.13;;;0.98;;
65572;SDS011;52214;50.940;13.996;2022-12-24T02:11:12;4.10;;;1.08;;
65572;SDS011;52214;50.940;13.996;2022-12-24T02:13:44;3.63;;;1.02;;
65572;SDS011;52214;50.940;13.996;2022-12-24T02:16:17;6.47;;;1.10;;
65572;SDS011;52214;50.940;13.996;2022-12-24T02:21:36;4.30;;;1.10;;
65572;SDS011;52214;50.940;13.996;2022-12-24T02:24:20;5.60;;;1.05;;
65572;SDS011;52214;50.940;13.996;2022-12-24T02:32:23;3.08;;;0.75;;
65572;SDS011;52214;50.940;13.996;2022-12-24T02:35:27;6.68;;;1.23;;
65572;SDS011;52214;50.940;13.996;2022-12-24T02:38:09;5.57;;;1.00;;
65572;SDS011;52214;50.940;13.996;2022-12-24T02:40:54;3.67;;;1.25;;
65572;SDS011;52214;50.940;13.996;2022-12-24T02:43:33;5.63;;;0.80;;
65572;SDS011;52214;50.940;13.996;2022-12-24T02:46:09;5.47;;;1.27;;
65572;SDS011;52214;50.940;13.996;2022-12-24T02:48:39;4.05;;;1.17;;
65572;SDS011;52214;50.940;13.996;2022-12-24T02:51:07;4.20;;;1.00;;
65572;SDS011;52214;50.940;13.996;2022-12-24T02:53:34;4.13;;;1.13;;
65572;SDS011;52214;50.940;13.996;2022-12-24T02:56:05;6.20;;;1.17;;
65572;SDS011;52214;50.940;13.996;2022-12-24T03:01:35;4.80;;;1.05;;
65572;SDS011;52214;50.940;13.996;2022-12-24T03:09:50;2.63;;;0.90;;
65572;SDS011;52214;50.940;13.996;2022-12-24T03:14:58;3.25;;;0.70;;
65572;SDS011;52214;50.940;13.996;2022-12-24T03:17:25;1.60;;;0.57;;
65572;SDS011;52214;50.940;13.996;2022-12-24T03:19:51;2.53;;;0.77;;
65572;SDS011;52214;50.940;13.996;2022-12-24T03:22:18;6.87;;;1.10;;
65572;SDS011;52214;50.940;13.996;2022-12-24T03:24:46;2.95;;;0.80;;
65572;SDS011;52214;50.940;13.996;2022-12-24T03:27:12;3.28;;;0.80;;
65572;SDS011;52214;50.940;13.996;2022-12-24T03:29:39;3.10;;;0.77;;
65572;SDS011;52214;50.940;13.996;2022-12-24T03:32:05;5.82;;;0.95;;
65572;SDS011;52214;50.940;13.996;2022-12-24T03:34:30;2.50;;;0.57;;
65572;SDS011;52214;50.940;13.996;2022-12-24T03:36:56;4.07;;;0.83;;
65572;SDS011;52214;50.940;13.996;2022-12-24T03:39:22;4.83;;;1.07;;
65572;SDS011;52214;50.940;13.996;2022-12-24T03:41:47;4.50;;;0.85;;
65572;SDS011;52214;50.940;13.996;2022-12-24T03:44:13;2.40;;;0.70;;
65572;SDS011;52214;50.940;13.996;2022-12-24T03:46:39;3.78;;;0.88;;
65572;SDS011;52214;50.940;13.996;2022-12-24T03:49:04;3.33;;;0.80;;
65572;SDS011;52214;50.940;13.996;2022-12-24T03:51:30;6.15;;;0.88;;
65572;SDS011;52214;50.940;13.996;2022-12-24T03:53:57;2.78;;;0.68;;
65572;SDS011;52214;50.940;13.996;2022-12-24T03:56:23;2.10;;;0.65;;
65572;SDS011;52214;50.940;13.996;2022-12-24T03:58:50;4.90;;;0.80;;
65572;SDS011;52214;50.940;13.996;2022-12-24T04:01:16;3.47;;;0.60;;
65572;SDS011;52214;50.940;13.996;2022-12-24T04:03:42;2.10;;;0.80;;
65572;SDS011;52214;50.940;13.996;2022-12-24T04:06:09;2.80;;;0.70;;
65572;SDS011;52214;50.940;13.996;2022-12-24T04:08:40;2.92;;;0.70;;
65572;SDS011;52214;50.940;13.996;2022-12-24T04:11:10;2.40;;;0.60;;
65572;SDS011;52214;50.940;13.996;2022-12-24T04:13:37;3.58;;;0.88;;
65572;SDS011;52214;50.940;13.996;2022-12-24T04:16:07;5.68;;;0.80;;
65572;SDS011;52214;50.940;13.996;2022-12-24T04:18:35;3.78;;;1.05;;
65572;SDS011;52214;50.940;13.996;2022-12-24T04:21:02;3.38;;;0.73;;
65572;SDS011;52214;50.940;13.996;2022-12-24T04:23:31;4.13;;;0.77;;
65572;SDS011;52214;50.940;13.996;2022-12-24T04:26:02;2.77;;;0.80;;
65572;SDS011;52214;50.940;13.996;2022-12-24T04:28:29;1.92;;;0.60;;
65572;SDS011;52214;50.940;13.996;2022-12-24T04:30:58;5.68;;;1.25;;
65572;SDS011;52214;50.940;13.996;2022-12-24T04:33:25;3.45;;;0.63;;
65572;SDS011;52214;50.940;13.996;2022-12-24T04:35:51;4.53;;;0.88;;
65572;SDS011;52214;50.940;13.996;2022-12-24T04:38:17;4.23;;;0.80;;
65572;SDS011;52214;50.940;13.996;2022-12-24T04:40:42;2.00;;;0.55;;
65572;SDS011;52214;50.940;13.996;2022-12-24T04:43:08;3.47;;;0.90;;
65572;SDS011;52214;50.940;13.996;2022-12-24T04:45:33;5.43;;;0.90;;
65572;SDS011;52214;50.940;13.996;2022-12-24T04:47:59;3.00;;;0.65;;
65572;SDS011;52214;50.940;13.996;2022-12-24T04:50:24;4.20;;;1.03;;
65572;SDS011;52214;50.940;13.996;2022-12-24T04:52:50;4.17;;;0.60;;
65572;SDS011;52214;50.940;13.996;2022-12-24T04:55:15;3.70;;;0.90;;
65572;SDS011;52214;50.940;13.996;2022-12-24T04:57:41;5.10;;;1.00;;
65572;SDS011;52214;50.940;13.996;2022-12-24T05:00:07;6.77;;;1.20;;
65572;SDS011;52214;50.940;13.996;2022-12-24T05:02:33;8.05;;;1.38;;
65572;SDS011;52214;50.940;13.996;2022-12-24T05:04:58;4.87;;;1.10;;
65572;SDS011;52214;50.940;13.996;2022-12-24T05:07:24;4.70;;;0.83;;
65572;SDS011;52214;50.940;13.996;2022-12-24T05:09:49;5.38;;;1.10;;
65572;SDS011;52214;50.940;13.996;2022-12-24T05:12:14;4.38;;;1.05;;
65572;SDS011;52214;50.940;13.996;2022-12-24T05:14:40;5.10;;;1.30;;
65572;SDS011;52214;50.940;13.996;2022-12-24T05:19:43;3.22;;;0.70;;
65572;SDS011;52214;50.940;13.996;2022-12-24T05:22:08;5.60;;;0.97;;
65572;SDS011;52214;50.940;13.996;2022-12-24T05:24:52;6.43;;;0.98;;
65572;SDS011;52214;50.940;13.996;2022-12-24T05:27:36;4.28;;;0.82;;
65572;SDS011;52214;50.940;13.996;2022-12-24T05:30:02;6.43;;;1.00;;
65572;SDS011;52214;50.940;13.996;2022-12-24T05:32:28;4.53;;;1.13;;
65572;SDS011;52214;50.940;13.996;2022-12-24T05:34:53;6.22;;;0.90;;
65572;SDS011;52214;50.940;13.996;2022-12-24T05:37:18;3.37;;;0.80;;
65572;SDS011;52214;50.940;13.996;2022-12-24T05:39:44;2.40;;;0.70;;
65572;SDS011;52214;50.940;13.996;2022-12-24T05:43:53;2.47;;;0.85;;
65572;SDS011;52214;50.940;13.996;2022-12-24T05:46:19;5.33;;;1.10;;
65572;SDS011;52214;50.940;13.996;2022-12-24T05:48:46;5.45;;;1.17;;
65572;SDS011;52214;50.940;13.996;2022-12-24T05:51:13;5.72;;;1.35;;
65572;SDS011;52214;50.940;13.996;2022-12-24T05:53:42;3.25;;;1.05;;
65572;SDS011;52214;50.940;13.996;2022-12-24T05:56:09;4.43;;;0.90;;
65572;SDS011;52214;50.940;13.996;2022-12-24T05:58:37;3.53;;;1.23;;
65572;SDS011;52214;50.940;13.996;2022-12-24T06:01:04;5.03;;;1.13;;
65572;SDS011;52214;50.940;13.996;2022-12-24T06:03:30;8.80;;;1.30;;
65572;SDS011;52214;50.940;13.996;2022-12-24T06:06:01;2.47;;;0.73;;
65572;SDS011;52214;50.940;13.996;2022-12-24T06:10:53;1.42;;;0.50;;
65572;SDS011;52214;50.940;13.996;2022-12-24T06:13:20;9.18;;;1.00;;
65572;SDS011;52214;50.940;13.996;2022-12-24T06:15:45;3.57;;;1.10;;
65572;SDS011;52214;50.940;13.996;2022-12-24T06:18:10;3.70;;;1.03;;
65572;SDS011;52214;50.940;13.996;2022-12-24T06:20:36;3.87;;;1.20;;
65572;SDS011;52214;50.940;13.996;2022-12-24T06:23:01;5.27;;;1.07;;
65572;SDS011;52214;50.940;13.996;2022-12-24T06:25:27;3.97;;;0.65;;
65572;SDS011;52214;50.940;13.996;2022-12-24T06:27:52;4.67;;;0.97;;
65572;SDS011;52214;50.940;13.996;2022-12-24T06:30:18;3.93;;;1.20;;
65572;SDS011;52214;50.940;13.996;2022-12-24T06:32:43;4.20;;;0.80;;
65572;SDS011;52214;50.940;13.996;2022-12-24T06:37:46;3.90;;;1.38;;
65572;SDS011;52214;50.940;13.996;2022-12-24T06:40:12;3.30;;;0.80;;
65572;SDS011;52214;50.940;13.996;2022-12-24T06:42:37;5.38;;;1.10;;
65572;SDS011;52214;50.940;13.996;2022-12-24T06:45:03;4.60;;;0.93;;
65572;SDS011;52214;50.940;13.996;2022-12-24T06:47:29;5.68;;;0.90;;
65572;SDS011;52214;50.940;13.996;2022-12-24T06:49:54;5.70;;;0.80;;
65572;SDS011;52214;50.940;13.996;2022-12-24T06:52:19;4.90;;;0.80;;
65572;SDS011;52214;50.940;13.996;2022-12-24T06:54:45;6.73;;;1.30;;
65572;SDS011;52214;50.940;13.996;2022-12-24T06:57:10;4.18;;;0.70;;
65572;SDS011;52214;50.940;13.996;2022-12-24T06:59:36;6.30;;;0.93;;
65572;SDS011;52214;50.940;13.996;2022-12-24T07:04:38;3.55;;;0.88;;
65572;SDS011;52214;50.940;13.996;2022-12-24T07:07:03;3.33;;;0.80;;
65572;SDS011;52214;50.940;13.996;2022-12-24T07:09:29;3.23;;;1.27;;
65572;SDS011;52214;50.940;13.996;2022-12-24T07:11:55;4.32;;;0.75;;
65572;SDS011;52214;50.940;13.996;2022-12-24T07:14:20;7.30;;;1.10;;
65572;SDS011;52214;50.940;13.996;2022-12-24T07:16:46;6.63;;;0.90;;
65572;SDS011;52214;50.940;13.996;2022-12-24T07:19:11;3.03;;;0.65;;
65572;SDS011;52214;50.940;13.996;2022-12-24T07:21:37;6.57;;;0.93;;
65572;SDS011;52214;50.940;13.996;2022-12-24T07:24:02;4.73;;;1.13;;
65572;SDS011;52214;50.940;13.996;2022-12-24T07:26:28;6.63;;;1.25;;
65572;SDS011;52214;50.940;13.996;2022-12-24T07:32:03;6.90;;;1.20;;
65572;SDS011;52214;50.940;13.996;2022-12-24T07:34:29;4.28;;;1.25;;
65572;SDS011;52214;50.940;13.996;2022-12-24T07:36:55;3.67;;;1.00;;
65572;SDS011;52214;50.940;13.996;2022-12-24T07:39:20;8.23;;;1.55;;
65572;SDS011;52214;50.940;13.996;2022-12-24T07:41:46;7.15;;;1.20;;
65572;SDS011;52214;50.940;13.996;2022-12-24T07:44:12;5.10;;;1.40;;
65572;SDS011;52214;50.940;13.996;2022-12-24T07:46:38;3.28;;;1.00;;
65572;SDS011;52214;50.940;13.996;2022-12-24T07:49:04;7.70;;;1.20;;
65572;SDS011;52214;50.940;13.996;2022-12-24T07:54:28;7.15;;;1.27;;
65572;SDS011;52214;50.940;13.996;2022-12-24T07:56:54;4.10;;;1.43;;
65572;SDS011;52214;50.940;13.996;2022-12-24T07:59:19;3.27;;;1.03;;
65572;SDS011;52214;50.940;13.996;2022-12-24T08:01:45;5.35;;;1.00;;
65572;SDS011;52214;50.940;13.996;2022-12-24T08:04:10;6.10;;;0.97;;
65572;SDS011;52214;50.940;13.996;2022-12-24T08:06:36;3.05;;;0.80;;
65572;SDS011;52214;50.940;13.996;2022-12-24T08:09:01;2.17;;;0.45;;
65572;SDS011;52214;50.940;13.996;2022-12-24T08:11:27;3.60;;;1.00;;
65572;SDS011;52214;50.940;13.996;2022-12-24T08:13:52;3.87;;;1.27;;
65572;SDS011;52214;50.940;13.996;2022-12-24T08:18:54;2.67;;;0.90;;
65572;SDS011;52214;50.940;13.996;2022-12-24T08:21:20;1.73;;;0.57;;
65572;SDS011;52214;50.940;13.996;2022-12-24T08:23:46;5.63;;;1.10;;
65572;SDS011;52214;50.940;13.996;2022-12-24T08:26:11;4.82;;;0.85;;
65572;SDS011;52214;50.940;13.996;2022-12-24T08:28:37;6.87;;;0.80;;
65572;SDS011;52214;50.940;13.996;2022-12-24T08:31:02;6.93;;;0.90;;
65572;SDS011;52214;50.940;13.996;2022-12-24T08:33:28;4.28;;;1.08;;
65572;SDS011;52214;50.940;13.996;2022-12-24T08:35:54;3.80;;;0.80;;
65572;SDS011;52214;50.940;13.996;2022-12-24T08:38:21;5.63;;;1.10;;
65572;SDS011;52214;50.940;13.996;2022-12-24T08:40:47;4.10;;;0.70;;
65572;SDS011;52214;50.940;13.996;2022-12-24T08:45:46;4.65;;;0.88;;
65572;SDS011;52214;50.940;13.996;2022-12-24T08:48:13;4.37;;;1.10;;
65572;SDS011;52214;50.940;13.996;2022-12-24T08:50:39;3.47;;;1.25;;
65572;SDS011;52214;50.940;13.996;2022-12-24T08:53:06;3.97;;;0.80;;
65572;SDS011;52214;50.940;13.996;2022-12-24T08:55:32;6.82;;;1.20;;
65572;SDS011;52214;50.940;13.996;2022-12-24T08:57:58;5.57;;;1.00;;
65572;SDS011;52214;50.940;13.996;2022-12-24T09:00:24;5.70;;;1.20;;
65572;SDS011;52214;50.940;13.996;2022-12-24T09:02:49;3.10;;;1.07;;
65572;SDS011;52214;50.940;13.996;2022-12-24T09:05:15;3.77;;;0.87;;
65572;SDS011;52214;50.940;13.996;2022-12-24T09:07:40;4.40;;;1.05;;
65572;SDS011;52214;50.940;13.996;2022-12-24T09:12:38;3.53;;;1.07;;
65572;SDS011;52214;50.940;13.996;2022-12-24T09:15:04;6.90;;;1.30;;
65572;SDS011;52214;50.940;13.996;2022-12-24T09:17:32;5.60;;;1.17;;
65572;SDS011;52214;50.940;13.996;2022-12-24T09:19:58;3.13;;;1.00;;
65572;SDS011;52214;50.940;13.996;2022-12-24T09:22:23;4.82;;;0.95;;
65572;SDS011;52214;50.940;13.996;2022-12-24T09:24:49;3.83;;;1.10;;
65572;SDS011;52214;50.940;13.996;2022-12-24T09:27:14;4.63;;;1.17;;
65572;SDS011;52214;50.940;13.996;2022-12-24T09:29:40;7.17;;;1.17;;
65572;SDS011;52214;50.940;13.996;2022-12-24T09:32:06;2.77;;;1.00;;
65572;SDS011;52214;50.940;13.996;2022-12-24T09:34:31;4.18;;;1.30;;
65572;SDS011;52214;50.940;13.996;2022-12-24T09:39:35;5.03;;;1.17;;
65572;SDS011;52214;50.940;13.996;2022-12-24T09:42:10;5.63;;;1.17;;
65572;SDS011;52214;50.940;13.996;2022-12-24T09:44:57;5.15;;;1.30;;
65572;SDS011;52214;50.940;13.996;2022-12-24T09:47:35;8.82;;;1.80;;
65572;SDS011;52214;50.940;13.996;2022-12-24T09:50:40;3.83;;;0.77;;
65572;SDS011;52214;50.940;13.996;2022-12-24T09:53:12;3.60;;;0.80;;
65572;SDS011;52214;50.940;13.996;2022-12-24T09:55:49;8.63;;;1.48;;
65572;SDS011;52214;50.940;13.996;2022-12-24T09:58:40;8.40;;;1.05;;
65572;SDS011;52214;50.940;13.996;2022-12-24T10:02:34;8.05;;;2.35;;
65572;SDS011;52214;50.940;13.996;2022-12-24T10:05:00;7.67;;;1.50;;
65572;SDS011;52214;50.940;13.996;2022-12-24T10:07:43;6.25;;;2.03;;
65572;SDS011;52214;50.940;13.996;2022-12-24T10:10:45;6.93;;;1.50;;
65572;SDS011;52214;50.940;13.996;2022-12-24T10:16:18;6.32;;;1.70;;
65572;SDS011;52214;50.940;13.996;2022-12-24T10:19:09;5.25;;;1.30;;
65572;SDS011;52214;50.940;13.996;2022-12-24T10:22:01;2.83;;;0.90;;
65572;SDS011;52214;50.940;13.996;2022-12-24T10:24:57;5.80;;;1.00;;
65572;SDS011;52214;50.940;13.996;2022-12-24T10:27:44;11.75;;;1.70;;
65572;SDS011;52214;50.940;13.996;2022-12-24T10:30:28;5.57;;;1.23;;
65572;SDS011;52214;50.940;13.996;2022-12-24T10:33:17;5.35;;;1.30;;
65572;SDS011;52214;50.940;13.996;2022-12-24T10:36:02;4.60;;;1.25;;
65572;SDS011;52214;50.940;13.996;2022-12-24T10:38:46;6.60;;;1.10;;
65572;SDS011;52214;50.940;13.996;2022-12-24T10:41:12;3.65;;;1.42;;
65572;SDS011;52214;50.940;13.996;2022-12-24T10:43:39;7.87;;;2.00;;
65572;SDS011;52214;50.940;13.996;2022-12-24T10:46:14;7.00;;;2.20;;
65572;SDS011;52214;50.940;13.996;2022-12-24T10:48:41;8.00;;;2.47;;
65572;SDS011;52214;50.940;13.996;2022-12-24T10:51:24;8.57;;;2.45;;
65572;SDS011;52214;50.940;13.996;2022-12-24T10:54:21;6.00;;;1.73;;
65572;SDS011;52214;50.940;13.996;2022-12-24T10:56:48;10.73;;;1.90;;
65572;SDS011;52214;50.940;13.996;2022-12-24T11:02:23;10.75;;;1.80;;
65572;SDS011;52214;50.940;13.996;2022-12-24T11:04:57;4.53;;;0.90;;
65572;SDS011;52214;50.940;13.996;2022-12-24T11:07:24;4.07;;;1.35;;
65572;SDS011;52214;50.940;13.996;2022-12-24T11:10:00;5.87;;;1.10;;
65572;SDS011;52214;50.940;13.996;2022-12-24T11:12:30;5.93;;;1.33;;
65572;SDS011;52214;50.940;13.996;2022-12-24T11:17:41;7.47;;;1.17;;
65572;SDS011;52214;50.940;13.996;2022-12-24T11:20:16;7.35;;;1.10;;
65572;SDS011;52214;50.940;13.996;2022-12-24T11:22:47;3.90;;;1.10;;
65572;SDS011;52214;50.940;13.996;2022-12-24T11:25:20;6.20;;;1.23;;
65572;SDS011;52214;50.940;13.996;2022-12-24T11:27:48;7.75;;;1.05;;
65572;SDS011;52214;50.940;13.996;2022-12-24T11:33:08;12.23;;;1.77;;
65572;SDS011;52214;50.940;13.996;2022-12-24T11:35:32;6.25;;;1.30;;
65572;SDS011;52214;50.940;13.996;2022-12-24T11:40:32;4.50;;;1.07;;
65572;SDS011;52214;50.940;13.996;2022-12-24T11:43:00;2.88;;;0.80;;
65572;SDS011;52214;50.940;13.996;2022-12-24T11:45:27;6.40;;;1.50;;
65572;SDS011;52214;50.940;13.996;2022-12-24T11:47:54;6.10;;;1.00;;
65572;SDS011;52214;50.940;13.996;2022-12-24T11:58:36;4.05;;;1.20;;
65572;SDS011;52214;50.940;13.996;2022-12-24T12:01:22;5.10;;;1.07;;
65572;SDS011;52214;50.940;13.996;2022-12-24T12:03:58;5.97;;;1.00;;
65572;SDS011;52214;50.940;13.996;2022-12-24T12:06:32;2.55;;;0.60;;
65572;SDS011;52214;50.940;13.996;2022-12-24T12:09:09;4.95;;;0.82;;
65572;SDS011;52214;50.940;13.996;2022-12-24T12:11:39;4.40;;;1.02;;
65572;SDS011;52214;50.940;13.996;2022-12-24T12:14:10;3.17;;;0.90;;
65572;SDS011;52214;50.940;13.996;2022-12-24T12:19:25;4.60;;;1.20;;
65572;SDS011;52214;50.940;13.996;2022-12-24T12:21:55;5.03;;;0.95;;
65572;SDS011;52214;50.940;13.996;2022-12-24T12:24:45;5.68;;;1.30;;
65572;SDS011;52214;50.940;13.996;2022-12-24T12:27:19;4.27;;;1.13;;
65572;SDS011;52214;50.940;13.996;2022-12-24T12:30:05;5.88;;;1.08;;
65572;SDS011;52214;50.940;13.996;2022-12-24T12:37:55;9.00;;;1.50;;
65572;SDS011;52214;50.940;13.996;2022-12-24T12:40:28;6.03;;;1.10;;
65572;SDS011;52214;50.940;13.996;2022-12-24T12:43:07;9.95;;;1.80;;
65572;SDS011;52214;50.940;13.996;2022-12-24T12:46:08;9.95;;;2.83;;
65572;SDS011;52214;50.940;13.996;2022-12-24T12:51:21;11.57;;;3.55;;
65572;SDS011;52214;50.940;13.996;2022-12-24T12:54:15;4.13;;;1.40;;
65572;SDS011;52214;50.940;13.996;2022-12-24T12:56:37;6.25;;;2.05;;
65572;SDS011;52214;50.940;13.996;2022-12-24T13:22:26;3.97;;;1.40;;
65572;SDS011;52214;50.940;13.996;2022-12-24T13:24:52;6.05;;;1.20;;
65572;SDS011;52214;50.940;13.996;2022-12-24T13:27:23;5.85;;;1.30;;
65572;SDS011;52214;50.940;13.996;2022-12-24T13:29:56;5.75;;;1.33;;
65572;SDS011;52214;50.940;13.996;2022-12-24T13:40:01;5.63;;;1.20;;
65572;SDS011;52214;50.940;13.996;2022-12-24T13:47:56;4.53;;;1.10;;
65572;SDS011;52214;50.940;13.996;2022-12-24T13:55:58;4.80;;;0.90;;
65572;SDS011;52214;50.940;13.996;2022-12-24T13:58:34;5.03;;;1.50;;
65572;SDS011;52214;50.940;13.996;2022-12-24T14:01:31;5.30;;;1.10;;
65572;SDS011;52214;50.940;13.996;2022-12-24T14:03:58;5.45;;;1.40;;
65572;SDS011;52214;50.940;13.996;2022-12-24T14:06:30;5.22;;;1.00;;
65572;SDS011;52214;50.940;13.996;2022-12-24T14:09:11;4.50;;;1.00;;
65572;SDS011;52214;50.940;13.996;2022-12-24T14:14:27;4.53;;;1.13;;
65572;SDS011;52214;50.940;13.996;2022-12-24T14:16:58;5.75;;;1.25;;
65572;SDS011;52214;50.940;13.996;2022-12-24T14:19:31;4.90;;;0.98;;
65572;SDS011;52214;50.940;13.996;2022-12-24T14:25:00;4.10;;;1.00;;
65572;SDS011;52214;50.940;13.996;2022-12-24T14:27:32;3.67;;;1.30;;
65572;SDS011;52214;50.940;13.996;2022-12-24T14:30:15;3.92;;;1.27;;
65572;SDS011;52214;50.940;13.996;2022-12-24T14:32:41;5.07;;;1.10;;
65572;SDS011;52214;50.940;13.996;2022-12-24T14:37:41;3.72;;;0.90;;
65572;SDS011;52214;50.940;13.996;2022-12-24T14:40:17;6.13;;;1.30;;
65572;SDS011;52214;50.940;13.996;2022-12-24T14:42:50;5.57;;;1.10;;
65572;SDS011;52214;50.940;13.996;2022-12-24T14:48:49;5.00;;;1.02;;
65572;SDS011;52214;50.940;13.996;2022-12-24T14:53:54;3.17;;;1.35;;
65572;SDS011;52214;50.940;13.996;2022-12-24T14:56:41;7.13;;;1.30;;
65572;SDS011;52214;50.940;13.996;2022-12-24T14:59:14;6.05;;;1.02;;
65572;SDS011;52214;50.940;13.996;2022-12-24T15:01:41;3.47;;;1.17;;
65572;SDS011;52214;50.940;13.996;2022-12-24T15:06:36;6.53;;;1.20;;
65572;SDS011;52214;50.940;13.996;2022-12-24T15:09:12;5.32;;;1.40;;
65572;SDS011;52214;50.940;13.996;2022-12-24T15:11:43;7.70;;;2.23;;
65572;SDS011;52214;50.940;13.996;2022-12-24T15:14:09;4.63;;;1.70;;
65572;SDS011;52214;50.940;13.996;2022-12-24T15:16:37;6.65;;;2.30;;
65572;SDS011;52214;50.940;13.996;2022-12-24T15:19:18;7.13;;;1.70;;
65572;SDS011;52214;50.940;13.996;2022-12-24T15:21:50;5.45;;;1.95;;
65572;SDS011;52214;50.940;13.996;2022-12-24T15:24:26;4.57;;;1.17;;
65572;SDS011;52214;50.940;13.996;2022-12-24T15:26:59;4.95;;;1.55;;
65572;SDS011;52214;50.940;13.996;2022-12-24T15:29:31;3.70;;;1.40;;
65572;SDS011;52214;50.940;13.996;2022-12-24T15:32:03;4.32;;;1.23;;
65572;SDS011;52214;50.940;13.996;2022-12-24T15:34:34;5.63;;;1.33;;
65572;SDS011;52214;50.940;13.996;2022-12-24T15:37:05;7.80;;;1.10;;
65572;SDS011;52214;50.940;13.996;2022-12-24T15:39:35;3.90;;;1.50;;
65572;SDS011;52214;50.940;13.996;2022-12-24T15:42:03;4.68;;;1.60;;
65572;SDS011;52214;50.940;13.996;2022-12-24T15:44:46;6.53;;;1.55;;
65572;SDS011;52214;50.940;13.996;2022-12-24T15:47:23;5.38;;;1.30;;
65572;SDS011;52214;50.940;13.996;2022-12-24T15:50:02;3.30;;;1.23;;
65572;SDS011;52214;50.940;13.996;2022-12-24T15:52:30;5.57;;;1.73;;
65572;SDS011;52214;50.940;13.996;2022-12-24T15:54:56;5.90;;;1.33;;
65572;SDS011;52214;50.940;13.996;2022-12-24T15:57:31;4.27;;;1.50;;
65572;SDS011;52214;50.940;13.996;2022-12-24T15:59:59;5.43;;;1.25;;
65572;SDS011;52214;50.940;13.996;2022-12-24T16:02:38;3.97;;;0.82;;
65572;SDS011;52214;50.940;13.996;2022-12-24T16:08:31;5.57;;;1.50;;
65572;SDS011;52214;50.940;13.996;2022-12-24T16:13:20;7.07;;;1.40;;
65572;SDS011;52214;50.940;13.996;2022-12-24T16:15:52;8.15;;;1.70;;
65572;SDS011;52214;50.940;13.996;2022-12-24T16:18:25;6.82;;;1.90;;
65572;SDS011;52214;50.940;13.996;2022-12-24T16:20:56;6.00;;;2.47;;
65572;SDS011;52214;50.940;13.996;2022-12-24T16:23:23;6.60;;;2.17;;
65572;SDS011;52214;50.940;13.996;2022-12-24T16:25:53;8.90;;;1.40;;
65572;SDS011;52214;50.940;13.996;2022-12-24T16:28:19;5.13;;;1.40;;
65572;SDS011;52214;50.940;13.996;2022-12-24T16:30:46;6.15;;;1.27;;
65572;SDS011;52214;50.940;13.996;2022-12-24T16:33:12;7.30;;;1.58;;
65572;SDS011;52214;50.940;13.996;2022-12-24T16:35:40;7.23;;;1.40;;
65572;SDS011;52214;50.940;13.996;2022-12-24T16:38:06;6.53;;;1.70;;
65572;SDS011;52214;50.940;13.996;2022-12-24T16:40:31;9.20;;;1.67;;
65572;SDS011;52214;50.940;13.996;2022-12-24T16:42:57;9.40;;;1.80;;
65572;SDS011;52214;50.940;13.996;2022-12-24T16:45:41;6.63;;;1.43;;
65572;SDS011;52214;50.940;13.996;2022-12-24T16:48:09;7.50;;;1.40;;
65572;SDS011;52214;50.940;13.996;2022-12-24T16:50:41;4.07;;;1.80;;
65572;SDS011;52214;50.940;13.996;2022-12-24T16:53:08;6.73;;;2.10;;
65572;SDS011;52214;50.940;13.996;2022-12-24T16:55:37;6.50;;;1.77;;
65572;SDS011;52214;50.940;13.996;2022-12-24T16:58:02;7.60;;;2.10;;
65572;SDS011;52214;50.940;13.996;2022-12-24T17:00:28;8.07;;;1.80;;
65572;SDS011;52214;50.940;13.996;2022-12-24T17:02:53;7.67;;;1.80;;
65572;SDS011;52214;50.940;13.996;2022-12-24T17:05:19;6.20;;;1.60;;
65572;SDS011;52214;50.940;13.996;2022-12-24T17:07:48;7.40;;;1.90;;
65572;SDS011;52214;50.940;13.996;2022-12-24T17:10:16;6.00;;;2.88;;
65572;SDS011;52214;50.940;13.996;2022-12-24T17:12:42;7.60;;;2.97;;
65572;SDS011;52214;50.940;13.996;2022-12-24T17:15:08;6.60;;;2.90;;
65572;SDS011;52214;50.940;13.996;2022-12-24T17:17:34;8.32;;;2.80;;
65572;SDS011;52214;50.940;13.996;2022-12-24T17:20:00;9.25;;;2.20;;